Time;durP1;ratioP1;P1;durP2;ratioP2;P2;SDS_P1;SDS_P2;PMS_P1;PMS_P2;Temp;Humidity;BMP_temperature;BMP_pressure;BME280_temperature;BME280_humidity;BME280_pressure;Samples;Min_cycle;Max_cycle;Signal;HPM_P1;HPM_P2
2022/06/26 00:00:32;;;;;;;2.60;1.30;;;;;;;20.83;60.67;100167.88;5080306;28;20098;-72
2022/06/26 00:02:58;;;;;;;2.35;1.50;;;;;;;20.77;61.01;100175.78;5067468;28;20137;-72
2022/06/26 00:05:24;;;;;;;2.70;1.30;;;;;;;20.67;61.86;100178.22;5070159;28;20333;-72
2022/06/26 00:07:49;;;;;;;2.33;1.30;;;;;;;20.66;61.57;100183.81;5073813;28;20041;-72
2022/06/26 00:10:15;;;;;;;1.73;1.35;;;;;;;20.62;61.70;100177.22;5068676;28;20128;-72
2022/06/26 00:12:40;;;;;;;2.65;1.25;;;;;;;20.61;61.74;100172.91;5072167;28;20024;-72
2022/06/26 00:15:06;;;;;;;1.42;1.27;;;;;;;20.57;62.28;100173.38;5067219;28;20588;-72
2022/06/26 00:17:32;;;;;;;1.75;1.35;;;;;;;20.56;62.26;100185.16;5069000;28;20409;-73
2022/06/26 00:19:58;;;;;;;1.60;1.10;;;;;;;20.54;61.87;100189.91;5066625;28;20127;-72
2022/06/26 00:22:25;;;;;;;1.90;1.00;;;;;;;20.50;62.07;100199.47;5065641;28;20032;-73
2022/06/26 00:24:54;;;;;;;1.20;0.90;;;;;;;20.45;61.78;100204.72;5051907;28;20085;-72
2022/06/26 00:27:20;;;;;;;1.80;1.08;;;;;;;20.41;62.39;100210.75;5080266;28;20033;-72
2022/06/26 00:29:47;;;;;;;1.33;0.88;;;;;;;20.37;62.40;100213.84;5078856;28;20037;-72
2022/06/26 00:32:12;;;;;;;1.55;0.93;;;;;;;20.41;62.27;100214.25;5084569;28;20036;-72
2022/06/26 00:34:37;;;;;;;1.30;1.00;;;;;;;20.45;62.30;100228.88;5080789;28;20033;-72
2022/06/26 00:37:03;;;;;;;2.70;1.50;;;;;;;20.51;62.64;100219.91;5048166;28;20037;-72
2022/06/26 00:39:28;;;;;;;2.60;1.23;;;;;;;20.51;63.00;100221.78;5079662;28;20037;-72
2022/06/26 00:41:54;;;;;;;1.58;1.17;;;;;;;20.47;63.21;100225.94;5045194;28;20033;-72
2022/06/26 00:44:22;;;;;;;1.38;1.00;;;;;;;20.44;62.87;100239.84;5053187;28;20041;-72
2022/06/26 00:46:48;;;;;;;1.48;1.08;;;;;;;20.41;62.84;100235.72;5071329;28;20033;-72
2022/06/26 00:49:14;;;;;;;1.58;1.00;;;;;;;20.41;62.81;100235.72;5096834;28;20493;-73
2022/06/26 00:51:44;;;;;;;1.10;0.90;;;;;;;20.44;62.81;100234.47;5065834;28;20055;-73
2022/06/26 00:54:10;;;;;;;1.42;0.93;;;;;;;20.43;62.91;100239.03;5065409;28;20036;-72
2022/06/26 00:56:36;;;;;;;1.40;1.10;;;;;;;20.38;63.43;100236.19;5070527;28;20086;-73
2022/06/26 00:59:03;;;;;;;1.48;1.00;;;;;;;20.34;63.30;100234.97;5099728;28;20033;-72
2022/06/26 01:01:29;;;;;;;2.00;1.00;;;;;;;20.30;63.34;100233.78;5070580;28;20028;-72
2022/06/26 01:03:54;;;;;;;1.15;0.90;;;;;;;20.23;63.72;100243.75;5069376;28;20036;-72
2022/06/26 01:06:20;;;;;;;1.10;0.93;;;;;;;20.21;63.76;100235.13;5071107;28;20044;-72
2022/06/26 01:08:46;;;;;;;1.30;0.90;;;;;;;20.23;63.63;100238.41;5070060;28;20055;-73
2022/06/26 01:11:17;;;;;;;1.80;1.30;;;;;;;20.20;65.33;100246.91;5067170;28;20132;-72
2022/06/26 01:13:46;;;;;;;;;;;;;;;20.14;65.49;100233.34;5098493;28;20094;-72
2022/06/26 01:16:19;;;;;;;2.15;1.30;;;;;;;20.17;64.50;100233.94;5070559;28;19931;-72
2022/06/26 01:18:48;;;;;;;1.88;1.27;;;;;;;20.20;64.34;100230.78;5067656;28;20509;-72
2022/06/26 01:21:14;;;;;;;2.53;1.25;;;;;;;20.21;64.46;100233.25;5097588;28;20114;-73
2022/06/26 01:23:40;;;;;;;2.47;1.10;;;;;;;20.19;64.80;100242.56;5097685;28;20029;-72
2022/06/26 01:26:05;;;;;;;1.75;1.05;;;;;;;20.09;65.86;100248.44;5067052;28;20048;-72
2022/06/26 01:28:31;;;;;;;1.30;1.20;;;;;;;19.97;66.13;100256.41;5067061;28;20613;-73
2022/06/26 01:30:56;;;;;;;1.58;1.33;;;;;;;19.88;67.14;100258.56;5067526;28;20040;-72
2022/06/26 01:33:22;;;;;;;2.17;1.20;;;;;;;19.82;67.46;100253.25;5070187;28;20064;-72
2022/06/26 01:35:47;;;;;;;1.77;1.20;;;;;;;19.80;66.92;100256.13;5067643;28;20047;-71
2022/06/26 01:38:21;;;;;;;1.40;1.10;;;;;;;19.85;66.56;100258.16;5067370;28;20663;-73
2022/06/26 01:40:48;;;;;;;1.50;1.00;;;;;;;19.90;66.38;100261.00;5097585;28;20056;-72
2022/06/26 01:43:17;;;;;;;1.25;0.90;;;;;;;19.94;66.32;100263.03;5068814;28;20037;-73
2022/06/26 01:45:47;;;;;;;1.40;1.10;;;;;;;19.94;66.34;100265.72;5066947;28;20079;-73
2022/06/26 01:48:14;;;;;;;1.13;0.80;;;;;;;19.95;66.43;100269.22;5066156;28;20036;-72
2022/06/26 01:50:40;;;;;;;1.38;0.90;;;;;;;19.93;66.55;100263.25;5071024;28;20443;-72
2022/06/26 01:53:05;;;;;;;0.90;0.80;;;;;;;19.91;66.28;100265.34;5072516;28;20123;-72
2022/06/26 01:55:31;;;;;;;1.27;0.80;;;;;;;19.89;66.27;100265.56;5075577;28;20552;-72
2022/06/26 01:58:01;;;;;;;1.05;0.80;;;;;;;19.91;66.12;100262.66;5072403;28;20068;-72
2022/06/26 02:00:26;;;;;;;1.20;0.90;;;;;;;19.97;66.47;100260.94;5072277;28;20043;-72
2022/06/26 02:02:51;;;;;;;1.17;0.90;;;;;;;20.02;66.23;100274.53;5071356;28;20040;-73
2022/06/26 02:05:17;;;;;;;0.93;0.70;;;;;;;20.04;66.06;100269.75;5070293;28;20076;-73
2022/06/26 02:07:42;;;;;;;1.17;0.90;;;;;;;20.06;66.04;100275.72;5074292;28;20302;-73
2022/06/26 02:15:40;;;;;;;1.63;1.17;;;;;;;20.05;66.41;100263.38;5051765;28;20085;-73
2022/06/26 02:18:06;;;;;;;1.48;0.90;;;;;;;20.05;66.70;100260.69;5069464;28;20036;-72
2022/06/26 02:20:31;;;;;;;1.48;1.10;;;;;;;20.05;66.75;100253.44;5069549;28;20037;-72
2022/06/26 02:22:56;;;;;;;2.03;1.08;;;;;;;20.07;66.57;100258.56;5067873;28;20048;-73
2022/06/26 02:25:22;;;;;;;0.85;0.80;;;;;;;20.09;66.61;100246.59;5074437;28;20041;-73
2022/06/26 02:27:48;;;;;;;1.80;1.10;;;;;;;20.07;67.12;100247.84;5099822;28;20428;-72
2022/06/26 02:30:14;;;;;;;1.48;1.10;;;;;;;20.05;67.39;100237.34;5067850;28;20046;-73
2022/06/26 02:32:40;;;;;;;1.20;1.10;;;;;;;20.05;67.59;100225.78;5100568;27;20028;-73
2022/06/26 02:35:06;;;;;;;1.55;1.20;;;;;;;20.02;67.90;100226.22;5070902;28;20077;-73
2022/06/26 02:37:31;;;;;;;2.05;1.30;;;;;;;20.05;67.87;100221.22;5072473;28;20043;-73
2022/06/26 02:39:56;;;;;;;1.63;1.30;;;;;;;20.12;67.62;100219.31;5069599;28;20417;-72
2022/06/26 02:42:21;;;;;;;2.30;1.30;;;;;;;20.19;67.27;100216.56;5071265;28;20109;-72
2022/06/26 02:44:47;;;;;;;1.97;1.40;;;;;;;20.23;67.51;100220.41;5073690;28;20068;-73
2022/06/26 02:47:12;;;;;;;2.50;1.50;;;;;;;20.23;67.35;100217.72;5072067;28;20856;-73
2022/06/26 02:49:37;;;;;;;4.13;1.60;;;;;;;20.22;67.14;100212.59;5067021;28;20066;-72
2022/06/26 02:52:03;;;;;;;2.83;1.65;;;;;;;20.20;67.30;100225.44;5069444;28;20543;-72
2022/06/26 02:54:28;;;;;;;2.00;1.40;;;;;;;20.20;67.23;100230.78;5071612;28;20039;-72
2022/06/26 02:56:53;;;;;;;2.05;1.20;;;;;;;20.18;67.23;100225.63;5069860;28;20486;-73
2022/06/26 02:59:19;;;;;;;1.85;1.35;;;;;;;20.18;67.10;100232.88;5072124;28;20066;-73
2022/06/26 03:01:44;;;;;;;1.70;1.20;;;;;;;20.18;66.91;100222.94;5069282;28;20052;-73
2022/06/26 03:04:10;;;;;;;1.85;1.20;;;;;;;20.18;67.47;100225.63;5069776;28;20056;-73
2022/06/26 03:06:35;;;;;;;1.67;1.20;;;;;;;20.16;67.20;100227.72;5074791;28;20447;-73
2022/06/26 03:09:01;;;;;;;1.20;0.90;;;;;;;20.11;67.63;100228.38;5068976;28;20029;-72
2022/06/26 03:11:26;;;;;;;1.20;1.00;;;;;;;20.08;67.94;100222.66;5069342;28;20517;-73
2022/06/26 03:13:52;;;;;;;1.40;1.00;;;;;;;20.06;67.25;100222.06;5072787;28;20029;-73
2022/06/26 03:16:17;;;;;;;1.15;0.80;;;;;;;20.05;67.50;100225.78;5070776;28;20562;-73
2022/06/26 03:18:42;;;;;;;1.55;0.80;;;;;;;20.02;67.74;100229.75;5073268;28;20139;-73
2022/06/26 03:21:07;;;;;;;1.25;0.90;;;;;;;19.97;67.70;100224.19;5072374;28;20033;-72
2022/06/26 03:26:17;;;;;;;1.33;1.00;;;;;;;19.94;67.97;100219.28;5066811;28;20532;-73
2022/06/26 03:28:42;;;;;;;1.58;0.98;;;;;;;19.97;67.86;100221.50;5068129;28;20048;-72
2022/06/26 03:31:07;;;;;;;1.60;1.10;;;;;;;20.00;67.54;100225.59;5068639;28;20392;-73
2022/06/26 03:33:33;;;;;;;1.85;1.10;;;;;;;20.01;67.98;100225.41;5070547;28;20032;-73
2022/06/26 03:35:58;;;;;;;1.67;0.98;;;;;;;20.04;67.59;100224.13;5070861;28;20101;-73
2022/06/26 03:38:23;;;;;;;2.55;1.00;;;;;;;20.07;67.39;100231.72;5071161;28;20052;-73
2022/06/26 03:40:49;;;;;;;1.13;1.00;;;;;;;20.11;67.72;100243.69;5067562;28;20029;-72
2022/06/26 03:43:14;;;;;;;1.10;0.88;;;;;;;20.06;67.19;100243.53;5067768;28;20282;-73
2022/06/26 03:45:39;;;;;;;1.10;0.80;;;;;;;20.03;68.05;100244.78;5068552;28;20032;-73
2022/06/26 03:48:05;;;;;;;1.60;0.93;;;;;;;20.04;68.40;100248.28;5069163;28;20283;-72
2022/06/26 03:50:30;;;;;;;1.90;1.20;;;;;;;20.01;69.19;100259.47;5064998;28;20033;-73
2022/06/26 03:52:56;;;;;;;1.58;1.20;;;;;;;19.97;69.56;100260.94;5049486;28;20040;-72
2022/06/26 03:55:21;;;;;;;1.77;1.33;;;;;;;19.96;69.28;100256.63;5049088;28;20036;-72
2022/06/26 03:57:47;;;;;;;1.77;1.10;;;;;;;19.95;69.12;100261.19;5048542;28;20053;-73
2022/06/26 04:00:12;;;;;;;1.98;1.02;;;;;;;19.94;69.16;100259.53;5101238;27;20554;-73
2022/06/26 04:02:39;;;;;;;1.42;1.10;;;;;;;19.95;69.09;100274.59;5069535;28;20037;-72
2022/06/26 04:05:05;;;;;;;1.45;1.00;;;;;;;19.95;69.37;100271.91;5074671;28;20090;-72
2022/06/26 04:07:30;;;;;;;2.25;1.13;;;;;;;19.95;69.57;100271.91;5068737;28;20363;-72
2022/06/26 04:09:56;;;;;;;1.48;1.10;;;;;;;19.99;69.66;100272.28;5072216;28;20263;-73
2022/06/26 04:12:21;;;;;;;1.52;1.00;;;;;;;20.02;69.56;100271.84;5068576;28;20051;-72
2022/06/26 04:14:47;;;;;;;2.25;1.25;;;;;;;20.07;69.85;100272.00;5069604;28;20033;-73
2022/06/26 04:17:13;;;;;;;2.13;1.30;;;;;;;20.07;70.40;100256.72;5067462;28;20063;-72
2022/06/26 04:19:38;;;;;;;1.67;1.10;;;;;;;20.09;70.81;100270.75;5070780;28;20085;-73
2022/06/26 04:22:04;;;;;;;1.50;1.17;;;;;;;20.11;70.32;100262.47;5067175;28;20050;-73
2022/06/26 04:24:29;;;;;;;1.63;1.00;;;;;;;20.09;70.40;100268.06;5067050;28;20187;-73
2022/06/26 04:26:55;;;;;;;1.30;0.80;;;;;;;20.03;70.30;100273.50;5067906;28;20507;-72
2022/06/26 04:29:20;;;;;;;1.65;1.00;;;;;;;19.96;70.54;100286.97;5071214;28;20035;-73
2022/06/26 04:31:46;;;;;;;1.10;0.82;;;;;;;19.88;70.64;100288.06;5071743;28;20115;-73
2022/06/26 04:34:11;;;;;;;2.78;1.45;;;;;;;19.82;71.69;100299.66;5067989;28;20075;-72
2022/06/26 04:36:36;;;;;;;2.53;1.38;;;;;;;19.70;73.19;100291.50;5072086;28;20038;-73
2022/06/26 04:39:02;;;;;;;1.90;1.23;;;;;;;19.63;73.00;100285.31;5069061;28;20549;-73
2022/06/26 04:41:38;;;;;;;1.38;1.00;;;;;;;19.59;72.77;100291.34;5075772;28;20131;-72
2022/06/26 04:44:05;;;;;;;1.80;1.20;;;;;;;19.55;72.72;100287.47;5067069;28;20035;-72
2022/06/26 04:46:31;;;;;;;1.60;1.20;;;;;;;19.51;73.58;100281.69;5064318;28;20119;-73
2022/06/26 04:48:57;;;;;;;1.63;1.10;;;;;;;19.49;73.30;100278.41;5067260;28;20388;-73
2022/06/26 04:51:22;;;;;;;1.20;0.90;;;;;;;19.47;73.10;100286.69;5069078;28;20047;-73
2022/06/26 04:53:48;;;;;;;2.25;1.10;;;;;;;19.45;73.57;100287.91;5067395;28;20513;-73
2022/06/26 04:56:13;;;;;;;2.45;1.40;;;;;;;19.44;73.87;100291.66;5066803;28;20390;-72
2022/06/26 04:58:38;;;;;;;1.85;1.30;;;;;;;19.45;74.11;100293.28;5070988;28;20040;-73
2022/06/26 05:01:04;;;;;;;1.58;1.10;;;;;;;19.48;74.67;100295.53;5069251;28;20051;-73
2022/06/26 05:03:30;;;;;;;1.83;1.20;;;;;;;19.49;74.68;100287.25;5098569;28;20293;-73
2022/06/26 05:05:55;;;;;;;1.70;1.20;;;;;;;19.52;74.52;100294.91;5071713;28;20044;-73
2022/06/26 05:08:21;;;;;;;1.60;1.15;;;;;;;19.56;74.60;100297.97;5066681;28;20433;-73
2022/06/26 05:10:46;;;;;;;2.10;1.08;;;;;;;19.60;74.59;100299.19;5071908;28;20397;-73
2022/06/26 05:13:11;;;;;;;1.98;0.98;;;;;;;19.63;74.87;100300.59;5099242;28;20629;-73
2022/06/26 05:15:38;;;;;;;1.60;1.20;;;;;;;19.66;75.55;100302.84;5070014;28;20036;-73
2022/06/26 05:18:04;;;;;;;1.60;1.10;;;;;;;19.72;75.39;100304.69;5070023;28;20142;-73
2022/06/26 05:20:29;;;;;;;1.73;1.20;;;;;;;19.77;75.35;100304.88;5074254;28;20532;-73
2022/06/26 05:22:55;;;;;;;1.77;1.20;;;;;;;19.80;74.95;100314.34;5067782;28;20094;-73
2022/06/26 05:25:20;;;;;;;1.83;1.15;;;;;;;19.84;74.76;100316.38;5079676;28;20282;-73
2022/06/26 05:27:45;;;;;;;1.63;1.10;;;;;;;19.87;74.62;100318.59;5073296;28;20052;-73
2022/06/26 05:30:11;;;;;;;2.72;1.52;;;;;;;19.88;75.03;100327.50;5074215;28;20036;-72
2022/06/26 05:32:36;;;;;;;2.20;1.08;;;;;;;19.95;74.74;100339.00;5074376;28;20086;-73
2022/06/26 05:35:02;;;;;;;3.10;1.40;;;;;;;20.03;74.86;100349.47;5079035;28;20257;-73
2022/06/26 05:37:28;;;;;;;2.28;1.30;;;;;;;20.15;74.76;100341.53;5075094;28;20509;-73
2022/06/26 05:39:53;;;;;;;2.70;1.60;;;;;;;20.20;74.54;100339.00;5070575;28;20032;-73
2022/06/26 05:42:18;;;;;;;1.60;1.10;;;;;;;20.24;74.19;100334.84;5071405;28;20039;-73
2022/06/26 05:44:43;;;;;;;1.80;1.23;;;;;;;20.35;74.02;100339.50;5069900;28;20051;-73
2022/06/26 05:47:09;;;;;;;2.25;1.27;;;;;;;20.48;73.51;100346.59;5074034;28;20036;-73
2022/06/26 05:49:34;;;;;;;1.75;1.10;;;;;;;20.65;73.24;100354.94;5072467;28;20115;-73
2022/06/26 05:51:59;;;;;;;1.65;1.30;;;;;;;20.90;72.59;100372.84;5071732;28;20037;-73
2022/06/26 05:54:26;;;;;;;2.27;1.27;;;;;;;21.29;71.97;100365.38;5069929;28;20423;-73
2022/06/26 05:56:51;;;;;;;1.95;1.10;;;;;;;21.77;70.55;100373.44;5071665;28;20065;-73
2022/06/26 05:59:16;;;;;;;;;;;;;;;22.21;69.51;100375.91;5070180;28;20039;-74
2022/06/26 06:01:42;;;;;;;1.25;1.00;;;;;;;22.58;68.79;100373.00;5070258;28;20535;-74
2022/06/26 06:04:09;;;;;;;2.75;1.30;;;;;;;22.64;67.21;100370.19;5069737;28;20120;-73
2022/06/26 06:06:34;;;;;;;1.95;0.95;;;;;;;22.96;66.25;100372.50;5103145;28;20051;-74
2022/06/26 06:08:59;;;;;;;1.55;1.00;;;;;;;23.33;66.44;100366.78;5072831;28;20033;-73
2022/06/26 06:11:25;;;;;;;1.45;1.00;;;;;;;23.67;64.47;100361.50;5070465;28;20509;-74
2022/06/26 06:13:51;;;;;;;1.33;0.93;;;;;;;23.73;62.24;100353.25;5077521;28;20060;-74
2022/06/26 06:16:17;;;;;;;2.45;1.17;;;;;;;23.78;62.29;100351.72;5071636;28;20033;-74
2022/06/26 06:18:42;;;;;;;1.83;0.93;;;;;;;24.14;61.42;100355.84;5070761;28;20040;-73
2022/06/26 06:21:07;;;;;;;4.47;1.10;;;;;;;24.63;60.06;100361.47;5073057;28;20338;-73
2022/06/26 06:23:33;;;;;;;1.38;0.80;;;;;;;25.32;58.58;100357.50;5068625;28;21005;-73
2022/06/26 06:25:58;;;;;;;0.93;0.80;;;;;;;25.56;57.83;100358.84;5071537;28;20041;-74
2022/06/26 06:28:23;;;;;;;2.30;1.00;;;;;;;25.85;57.03;100359.38;5068491;28;20038;-74
2022/06/26 06:30:49;;;;;;;2.67;1.00;;;;;;;25.82;55.92;100372.63;5071175;28;20116;-75
2022/06/26 06:33:14;;;;;;;;;;;;;;;25.64;56.62;100371.91;5101230;27;20105;-74
2022/06/26 06:35:40;;;;;;;1.83;1.10;;;;;;;25.54;55.92;100373.69;5073289;28;20027;-74
2022/06/26 06:38:06;;;;;;;1.08;0.85;;;;;;;25.34;56.09;100390.56;5071763;28;20083;-74
2022/06/26 06:40:32;;;;;;;1.38;1.00;;;;;;;25.43;55.78;100392.56;5068718;28;20060;-74
2022/06/26 06:42:57;;;;;;;2.85;1.00;;;;;;;25.82;55.59;100392.41;5074204;28;20044;-74
2022/06/26 06:45:22;;;;;;;2.83;1.20;;;;;;;26.03;54.02;100390.72;5073994;28;20048;-74
2022/06/26 06:47:48;;;;;;;1.05;0.80;;;;;;;26.27;54.13;100393.91;5071573;28;20028;-74
2022/06/26 06:50:13;;;;;;;2.30;0.90;;;;;;;26.54;53.57;100395.75;5070331;28;20037;-73
2022/06/26 06:52:38;;;;;;;1.10;0.90;;;;;;;26.78;53.11;100390.75;5071658;28;20516;-74
2022/06/26 06:55:04;;;;;;;1.35;0.70;;;;;;;27.11;52.86;100394.97;5068746;28;20073;-74
2022/06/26 06:57:30;;;;;;;1.95;0.85;;;;;;;27.45;52.23;100391.88;5069584;28;20033;-74
2022/06/26 06:59:55;;;;;;;1.50;0.80;;;;;;;27.80;51.55;100395.75;5100221;28;20393;-74
2022/06/26 07:02:20;;;;;;;2.75;1.00;;;;;;;27.92;50.18;100400.97;5069541;28;22662;-75
2022/06/26 07:04:46;;;;;;;0.95;0.68;;;;;;;28.24;50.37;100405.31;5079198;28;20040;-74
2022/06/26 07:07:11;;;;;;;0.80;0.70;;;;;;;28.66;49.61;100409.66;5068645;28;20040;-74
2022/06/26 07:09:37;;;;;;;1.90;0.77;;;;;;;28.83;48.14;100412.88;5072073;28;20044;-74
2022/06/26 07:12:03;;;;;;;1.33;0.88;;;;;;;28.87;46.93;100419.41;5069436;28;20037;-74
2022/06/26 07:14:29;;;;;;;1.13;0.80;;;;;;;28.99;46.94;100414.47;5069699;28;20064;-74
2022/06/26 07:16:54;;;;;;;0.60;0.60;;;;;;;28.98;46.32;100415.56;5072593;28;20149;-74
2022/06/26 07:19:20;;;;;;;1.92;0.80;;;;;;;29.16;46.05;100421.50;5071611;28;20032;-75
2022/06/26 07:21:45;;;;;;;2.22;1.00;;;;;;;29.42;45.86;100416.75;5071578;28;20081;-74
2022/06/26 07:24:11;;;;;;;1.75;0.82;;;;;;;29.56;45.37;100415.06;5068660;28;20509;-75
2022/06/26 07:26:38;;;;;;;1.45;0.70;;;;;;;29.73;45.79;100424.81;5067017;28;20519;-74
2022/06/26 07:29:03;;;;;;;2.65;1.20;;;;;;;30.02;43.93;100416.69;5069406;28;20118;-74
2022/06/26 07:31:28;;;;;;;2.05;0.90;;;;;;;29.88;44.55;100423.88;5069784;28;20037;-74
2022/06/26 07:34:12;;;;;;;1.30;0.80;;;;;;;30.03;44.77;100419.13;5072019;28;20040;-74
2022/06/26 07:36:38;;;;;;;1.08;0.70;;;;;;;30.19;43.02;100414.34;5060316;28;20032;-74
2022/06/26 07:39:03;;;;;;;1.30;0.80;;;;;;;30.39;42.68;100421.59;5068853;28;20040;-74
2022/06/26 07:41:28;;;;;;;3.05;0.70;;;;;;;30.64;42.10;100428.72;5070200;28;20073;-74
2022/06/26 07:43:54;;;;;;;2.17;1.05;;;;;;;30.88;41.63;100434.22;5072963;28;20055;-74
2022/06/26 07:46:19;;;;;;;1.10;0.70;;;;;;;31.06;40.93;100434.59;5069971;28;20036;-75
2022/06/26 07:48:44;;;;;;;2.42;0.70;;;;;;;31.07;40.65;100433.47;5072054;28;20123;-74
2022/06/26 07:51:10;;;;;;;1.27;0.63;;;;;;;31.35;40.18;100428.22;5069913;28;20040;-74
2022/06/26 07:53:37;;;;;;;1.23;0.65;;;;;;;31.43;40.06;100430.31;5068110;28;20363;-73
2022/06/26 07:56:03;;;;;;;1.50;0.70;;;;;;;31.80;39.47;100424.06;5070965;28;20028;-74
2022/06/26 07:58:29;;;;;;;0.98;0.60;;;;;;;32.05;39.20;100428.34;5068277;28;20374;-74
2022/06/26 08:00:54;;;;;;;2.30;0.90;;;;;;;32.44;37.40;100418.09;5070634;28;20024;-74
2022/06/26 08:03:20;;;;;;;1.70;0.77;;;;;;;32.35;36.98;100423.47;5069622;28;20032;-74
2022/06/26 08:05:46;;;;;;;1.35;0.70;;;;;;;32.22;36.69;100422.31;5071161;28;20068;-74
2022/06/26 08:08:12;;;;;;;0.70;0.60;;;;;;;32.70;36.93;100429.44;5099610;28;20024;-74
2022/06/26 08:10:37;;;;;;;1.50;0.63;;;;;;;32.94;35.95;100432.81;5070012;28;20037;-74
2022/06/26 08:13:04;;;;;;;1.40;0.88;;;;;;;32.19;36.75;100433.84;5070509;28;20242;-74
2022/06/26 08:15:29;;;;;;;1.92;0.88;;;;;;;31.28;37.40;100436.78;5069462;28;20025;-74
2022/06/26 08:17:55;;;;;;;1.30;0.82;;;;;;;30.47;38.65;100425.59;5073185;28;20393;-73
2022/06/26 08:20:20;;;;;;;0.55;0.55;;;;;;;30.07;39.25;100430.28;5068994;28;20158;-74
2022/06/26 08:22:45;;;;;;;1.42;0.80;;;;;;;29.54;39.67;100432.78;5067334;28;20521;-74
2022/06/26 08:25:11;;;;;;;0.57;0.50;;;;;;;29.43;40.28;100421.91;5069400;28;20043;-74
2022/06/26 08:27:36;;;;;;;1.25;0.70;;;;;;;30.04;40.05;100430.84;5068820;28;20032;-74
2022/06/26 08:30:02;;;;;;;1.55;0.73;;;;;;;30.76;39.08;100419.31;5070094;28;20505;-74
2022/06/26 08:32:27;;;;;;;1.38;0.73;;;;;;;31.38;38.32;100424.88;5066134;28;20040;-74
2022/06/26 08:34:53;;;;;;;1.03;0.70;;;;;;;31.87;37.28;100420.94;5060500;28;20116;-74
2022/06/26 08:37:18;;;;;;;1.70;0.90;;;;;;;31.96;36.65;100419.19;5060333;28;20262;-74
2022/06/26 08:39:44;;;;;;;0.77;0.50;;;;;;;32.78;36.35;100417.78;5056308;28;20900;-74
2022/06/26 08:42:10;;;;;;;0.88;0.63;;;;;;;32.99;35.99;100410.78;5069925;28;21718;-75
2022/06/26 08:44:42;;;;;;;1.23;0.60;;;;;;;33.27;35.45;100409.97;5061816;28;20186;-74
2022/06/26 08:47:09;;;;;;;0.63;0.52;;;;;;;33.77;34.34;100404.47;5053875;28;20401;-74
2022/06/26 08:49:35;;;;;;;2.90;0.93;;;;;;;33.41;33.44;100397.84;5077547;28;20031;-74
2022/06/26 08:52:01;;;;;;;1.02;0.60;;;;;;;33.76;33.95;100398.19;5072468;28;20032;-75
2022/06/26 08:54:28;;;;;;;0.60;0.50;;;;;;;34.43;33.50;100391.88;5060202;28;20111;-75
2022/06/26 08:56:54;;;;;;;;;;;;;;;34.94;32.99;100397.91;5051002;28;20396;-75
2022/06/26 08:59:20;;;;;;;0.93;0.65;;;;;;;35.30;31.77;100394.13;5052141;28;19916;-75
2022/06/26 09:01:46;;;;;;;1.05;0.70;;;;;;;35.52;31.11;100391.25;5053820;28;20079;-75
2022/06/26 09:04:12;;;;;;;1.70;1.02;;;;;;;35.19;30.70;100388.13;5053009;28;20445;-74
2022/06/26 09:06:39;;;;;;;1.50;0.80;;;;;;;35.26;31.03;100395.91;5049938;28;20058;-74
2022/06/26 09:09:23;;;;;;;1.55;0.90;;;;;;;35.80;30.23;100406.63;5056357;28;20033;-75
2022/06/26 09:11:51;;;;;;;0.80;0.55;;;;;;;36.22;29.50;100399.47;5050111;28;20087;-75
2022/06/26 09:14:16;;;;;;;1.23;0.70;;;;;;;36.15;29.13;100402.72;5049735;28;20060;-75
2022/06/26 09:16:43;;;;;;;2.97;0.70;;;;;;;35.67;29.20;100409.22;5048909;28;20076;-75
2022/06/26 09:19:14;;;;;;;1.73;0.65;;;;;;;35.76;29.73;100405.69;5053031;28;20037;-75
2022/06/26 09:21:40;;;;;;;;;;;;;;;36.56;28.68;100404.06;5050181;28;20039;-75
2022/06/26 09:24:29;;;;;;;0.55;0.50;;;;;;;36.96;28.53;100412.00;5050366;28;19916;-75
2022/06/26 09:27:06;;;;;;;0.68;0.40;;;;;;;37.47;27.63;100420.31;5052049;28;20037;-75
2022/06/26 09:29:32;;;;;;;1.33;0.60;;;;;;;37.12;26.68;100417.78;5050883;28;20032;-75
2022/06/26 09:32:14;;;;;;;0.73;0.40;;;;;;;37.35;27.50;100346.59;5084519;28;20028;-75
2022/06/26 09:34:45;;;;;;;1.23;0.50;;;;;;;38.36;25.50;100339.13;5080303;28;20029;-75
2022/06/26 09:37:10;;;;;;;0.32;0.32;;;;;;;38.82;25.32;100417.22;5072391;28;20047;-74
2022/06/26 09:39:36;;;;;;;0.55;0.50;;;;;;;39.48;25.37;100416.94;5109369;27;20036;-75
2022/06/26 09:42:16;;;;;;;0.47;0.32;;;;;;;39.36;24.82;100422.50;5081863;28;20024;-74
2022/06/26 09:44:44;;;;;;;0.60;0.40;;;;;;;39.69;24.76;100415.97;5080527;28;20045;-75
2022/06/26 09:47:20;;;;;;;0.43;0.30;;;;;;;40.02;24.77;100414.91;5072757;28;20128;-75
2022/06/26 09:49:46;;;;;;;0.98;0.50;;;;;;;39.08;24.42;100422.41;5072654;28;20042;-75
2022/06/26 09:52:11;;;;;;;0.80;0.50;;;;;;;38.23;25.38;100416.44;5071612;28;20025;-75
2022/06/26 09:54:38;;;;;;;1.67;0.50;;;;;;;38.53;25.45;100419.03;5071724;28;21146;-75
2022/06/26 09:57:04;;;;;;;0.63;0.40;;;;;;;38.34;25.53;100413.22;5066286;28;20037;-75
2022/06/26 09:59:29;;;;;;;1.25;0.60;;;;;;;38.80;25.48;100405.69;5049658;28;20076;-75
2022/06/26 10:07:24;;;;;;;1.23;0.47;;;;;;;40.40;24.43;100400.50;5059262;28;20035;-75
2022/06/26 10:09:51;;;;;;;1.17;0.50;;;;;;;40.28;23.36;100395.84;5059400;28;20076;-75
2022/06/26 10:12:17;;;;;;;0.65;0.40;;;;;;;40.71;23.29;100399.72;5064398;28;20036;-75
2022/06/26 10:14:44;;;;;;;0.52;0.40;;;;;;;40.28;23.23;100395.84;5052792;28;20041;-75
2022/06/26 10:17:34;;;;;;;0.82;0.40;;;;;;;38.38;24.85;100409.44;5049005;28;20064;-74
2022/06/26 10:20:08;;;;;;;1.63;0.65;;;;;;;38.36;24.75;100405.41;5056553;28;20512;-74
2022/06/26 10:22:40;;;;;;;0.85;0.47;;;;;;;38.93;25.38;100406.53;5070123;28;20040;-74
2022/06/26 10:25:07;;;;;;;1.00;0.50;;;;;;;40.02;23.94;100409.38;5064159;28;20048;-75
2022/06/26 10:27:34;;;;;;;0.55;0.40;;;;;;;40.70;23.12;100408.41;5062738;28;20037;-75
2022/06/26 10:30:04;;;;;;;0.65;0.40;;;;;;;41.77;22.53;100408.00;5064293;28;20039;-75
2022/06/26 10:32:30;;;;;;;;;;;;;;;41.49;21.47;100405.44;5063526;28;20044;-75
2022/06/26 10:34:56;;;;;;;0.90;0.30;;;;;;;42.33;21.22;100400.31;5058451;28;20443;-75
2022/06/26 10:37:22;;;;;;;2.00;0.60;;;;;;;40.57;21.92;100393.00;5049816;28;20033;-75
2022/06/26 10:39:49;;;;;;;1.38;0.50;;;;;;;38.72;24.00;100392.81;5052190;28;20048;-74
2022/06/26 10:45:16;;;;;;;1.20;0.68;;;;;;;36.21;27.44;100391.53;5051053;28;20118;-73
2022/06/26 10:47:51;;;;;;;1.30;0.70;;;;;;;36.22;27.93;100390.41;5051164;28;20397;-73
2022/06/26 10:50:32;;;;;;;0.77;0.50;;;;;;;35.28;28.40;100388.16;5070036;28;20081;-74
2022/06/26 10:53:16;;;;;;;0.60;0.50;;;;;;;34.96;29.57;100384.66;5052055;28;20041;-73
2022/06/26 10:55:42;;;;;;;;;;;;;;;35.02;29.09;100385.34;5049887;28;20397;-72
2022/06/26 10:58:08;;;;;;;0.50;0.50;;;;;;;34.10;29.73;100385.06;5062528;28;25076;-72
2022/06/26 11:00:34;;;;;;;0.82;0.50;;;;;;;33.92;30.57;100379.44;5054721;28;20446;-74
2022/06/26 11:02:59;;;;;;;0.98;0.55;;;;;;;33.67;30.58;100383.59;5052823;28;20119;-74
2022/06/26 11:05:27;;;;;;;0.40;0.40;;;;;;;35.22;28.41;100376.50;5053689;28;20029;-74
2022/06/26 11:07:53;;;;;;;1.88;0.45;;;;;;;37.53;26.66;100382.31;5055766;28;20128;-74
2022/06/26 11:10:25;;;;;;;1.75;0.60;;;;;;;39.66;25.17;100380.66;5052445;28;20111;-75
2022/06/26 11:12:53;;;;;;;0.63;0.40;;;;;;;41.30;22.89;100380.44;5072192;28;20044;-74
2022/06/26 11:15:33;;;;;;;0.77;0.40;;;;;;;42.04;21.20;100385.91;5069731;28;20489;-74
2022/06/26 11:18:00;;;;;;;0.87;0.50;;;;;;;41.70;20.79;100377.34;5070933;28;20036;-74
2022/06/26 11:20:47;;;;;;;1.30;0.40;;;;;;;41.94;21.80;100383.72;5071400;28;20406;-75
2022/06/26 11:23:18;;;;;;;0.63;0.43;;;;;;;42.88;20.45;100380.59;5072363;28;20068;-75
2022/06/26 11:25:47;;;;;;;0.70;0.47;;;;;;;42.68;20.15;100372.31;5069544;28;20115;-75
2022/06/26 11:28:13;;;;;;;1.23;0.55;;;;;;;41.23;20.89;100370.00;5068283;28;20520;-74
2022/06/26 11:30:40;;;;;;;0.63;0.40;;;;;;;39.86;22.88;100365.84;5072217;28;20036;-75
2022/06/26 11:33:06;;;;;;;0.70;0.50;;;;;;;38.79;23.92;100354.34;5072370;28;20055;-74
2022/06/26 11:35:34;;;;;;;1.27;0.40;;;;;;;37.75;25.21;100362.63;5072544;28;20564;-73
2022/06/26 11:38:08;;;;;;;1.48;0.77;;;;;;;36.84;25.88;100362.31;5076097;28;20067;-74
2022/06/26 11:40:34;;;;;;;1.02;0.60;;;;;;;35.72;27.14;100351.28;5065631;28;20037;-73